sensor_id;sensor_type;location;lat;lon;timestamp;P1;durP1;ratioP1;P2;durP2;ratioP2
4808;SDS011;2418;49.930;8.606;2023-04-12T00:02:07;4.10;;;2.00;;
4808;SDS011;2418;49.930;8.606;2023-04-12T00:04:33;5.70;;;1.90;;
4808;SDS011;2418;49.930;8.606;2023-04-12T00:06:59;3.70;;;1.98;;
4808;SDS011;2418;49.930;8.606;2023-04-12T00:09:26;8.27;;;2.10;;
4808;SDS011;2418;49.930;8.606;2023-04-12T00:11:55;4.05;;;2.30;;
4808;SDS011;2418;49.930;8.606;2023-04-12T00:14:22;3.20;;;1.98;;
4808;SDS011;2418;49.930;8.606;2023-04-12T00:16:48;7.60;;;2.00;;
4808;SDS011;2418;49.930;8.606;2023-04-12T00:19:15;5.78;;;2.10;;
4808;SDS011;2418;49.930;8.606;2023-04-12T00:21:41;6.65;;;1.83;;
4808;SDS011;2418;49.930;8.606;2023-04-12T00:24:07;2.67;;;1.40;;
4808;SDS011;2418;49.930;8.606;2023-04-12T00:26:33;2.25;;;1.90;;
4808;SDS011;2418;49.930;8.606;2023-04-12T00:28:59;6.25;;;1.60;;
4808;SDS011;2418;49.930;8.606;2023-04-12T00:31:25;6.28;;;1.80;;
4808;SDS011;2418;49.930;8.606;2023-04-12T00:33:51;4.40;;;2.00;;
4808;SDS011;2418;49.930;8.606;2023-04-12T00:36:17;4.68;;;2.10;;
4808;SDS011;2418;49.930;8.606;2023-04-12T00:38:43;6.38;;;2.28;;
4808;SDS011;2418;49.930;8.606;2023-04-12T00:41:10;4.28;;;2.08;;
4808;SDS011;2418;49.930;8.606;2023-04-12T00:43:36;6.77;;;2.60;;
4808;SDS011;2418;49.930;8.606;2023-04-12T00:46:02;4.70;;;2.67;;
4808;SDS011;2418;49.930;8.606;2023-04-12T00:48:28;7.75;;;2.85;;
4808;SDS011;2418;49.930;8.606;2023-04-12T00:50:55;7.85;;;2.60;;
4808;SDS011;2418;49.930;8.606;2023-04-12T00:53:22;7.80;;;3.10;;
4808;SDS011;2418;49.930;8.606;2023-04-12T00:55:48;3.40;;;2.70;;
4808;SDS011;2418;49.930;8.606;2023-04-12T00:58:15;6.75;;;2.50;;
4808;SDS011;2418;49.930;8.606;2023-04-12T01:00:41;6.07;;;2.75;;
4808;SDS011;2418;49.930;8.606;2023-04-12T01:03:17;8.90;;;3.70;;
4808;SDS011;2418;49.930;8.606;2023-04-12T01:14:00;7.10;;;2.90;;
4808;SDS011;2418;49.930;8.606;2023-04-12T01:18:58;5.50;;;3.03;;
4808;SDS011;2418;49.930;8.606;2023-04-12T01:24:19;18.50;;;3.85;;
4808;SDS011;2418;49.930;8.606;2023-04-12T01:26:46;15.32;;;3.40;;
4808;SDS011;2418;49.930;8.606;2023-04-12T01:29:14;5.18;;;3.05;;
4808;SDS011;2418;49.930;8.606;2023-04-12T01:31:44;9.23;;;3.40;;
4808;SDS011;2418;49.930;8.606;2023-04-12T01:34:12;6.55;;;3.00;;
4808;SDS011;2418;49.930;8.606;2023-04-12T01:36:40;5.82;;;2.95;;
4808;SDS011;2418;49.930;8.606;2023-04-12T01:39:07;9.70;;;3.10;;
4808;SDS011;2418;49.930;8.606;2023-04-12T01:41:37;11.13;;;3.53;;
4808;SDS011;2418;49.930;8.606;2023-04-12T01:44:03;13.47;;;4.20;;
4808;SDS011;2418;49.930;8.606;2023-04-12T01:46:29;10.50;;;3.88;;
4808;SDS011;2418;49.930;8.606;2023-04-12T01:48:56;10.52;;;3.75;;
4808;SDS011;2418;49.930;8.606;2023-04-12T01:53:59;5.60;;;3.50;;
4808;SDS011;2418;49.930;8.606;2023-04-12T01:56:29;10.35;;;4.13;;
4808;SDS011;2418;49.930;8.606;2023-04-12T01:58:56;6.18;;;3.35;;
4808;SDS011;2418;49.930;8.606;2023-04-12T02:01:23;14.23;;;4.40;;
4808;SDS011;2418;49.930;8.606;2023-04-12T02:03:49;7.15;;;4.38;;
4808;SDS011;2418;49.930;8.606;2023-04-12T02:06:18;11.90;;;3.85;;
4808;SDS011;2418;49.930;8.606;2023-04-12T02:08:45;8.43;;;3.92;;
4808;SDS011;2418;49.930;8.606;2023-04-12T02:11:11;11.45;;;4.10;;
4808;SDS011;2418;49.930;8.606;2023-04-12T02:13:40;10.43;;;3.85;;
4808;SDS011;2418;49.930;8.606;2023-04-12T02:16:06;7.87;;;4.07;;
4808;SDS011;2418;49.930;8.606;2023-04-12T02:18:34;7.00;;;3.22;;
4808;SDS011;2418;49.930;8.606;2023-04-12T02:21:00;5.85;;;3.30;;
4808;SDS011;2418;49.930;8.606;2023-04-12T02:23:26;17.98;;;4.18;;
4808;SDS011;2418;49.930;8.606;2023-04-12T02:25:52;9.48;;;3.90;;
4808;SDS011;2418;49.930;8.606;2023-04-12T02:28:18;10.15;;;3.92;;
4808;SDS011;2418;49.930;8.606;2023-04-12T02:30:44;7.15;;;4.00;;
4808;SDS011;2418;49.930;8.606;2023-04-12T02:33:10;8.20;;;3.92;;
4808;SDS011;2418;49.930;8.606;2023-04-12T02:35:37;7.93;;;3.55;;
4808;SDS011;2418;49.930;8.606;2023-04-12T02:38:03;5.90;;;3.85;;
4808;SDS011;2418;49.930;8.606;2023-04-12T02:40:32;7.05;;;3.50;;
4808;SDS011;2418;49.930;8.606;2023-04-12T02:42:59;8.40;;;4.18;;
4808;SDS011;2418;49.930;8.606;2023-04-12T02:45:25;8.70;;;4.22;;
4808;SDS011;2418;49.930;8.606;2023-04-12T02:47:51;10.75;;;4.80;;
4808;SDS011;2418;49.930;8.606;2023-04-12T02:50:17;7.43;;;4.57;;
4808;SDS011;2418;49.930;8.606;2023-04-12T02:52:43;12.02;;;4.93;;
4808;SDS011;2418;49.930;8.606;2023-04-12T02:55:10;12.63;;;4.50;;
4808;SDS011;2418;49.930;8.606;2023-04-12T02:57:36;10.13;;;4.90;;
4808;SDS011;2418;49.930;8.606;2023-04-12T03:00:02;11.85;;;4.68;;
4808;SDS011;2418;49.930;8.606;2023-04-12T03:02:33;11.63;;;4.60;;
4808;SDS011;2418;49.930;8.606;2023-04-12T03:04:58;9.57;;;5.00;;
4808;SDS011;2418;49.930;8.606;2023-04-12T03:07:24;10.23;;;4.57;;
4808;SDS011;2418;49.930;8.606;2023-04-12T03:09:50;9.77;;;4.40;;
4808;SDS011;2418;49.930;8.606;2023-04-12T03:12:16;8.10;;;4.25;;
4808;SDS011;2418;49.930;8.606;2023-04-12T03:14:42;6.75;;;3.95;;
4808;SDS011;2418;49.930;8.606;2023-04-12T03:17:08;7.50;;;4.10;;
4808;SDS011;2418;49.930;8.606;2023-04-12T03:19:34;5.30;;;3.55;;
4808;SDS011;2418;49.930;8.606;2023-04-12T03:22:01;9.07;;;3.65;;
4808;SDS011;2418;49.930;8.606;2023-04-12T03:24:28;7.80;;;4.55;;
4808;SDS011;2418;49.930;8.606;2023-04-12T03:26:58;6.75;;;3.53;;
4808;SDS011;2418;49.930;8.606;2023-04-12T03:29:23;5.60;;;3.40;;
4808;SDS011;2418;49.930;8.606;2023-04-12T03:31:49;11.60;;;3.30;;
4808;SDS011;2418;49.930;8.606;2023-04-12T03:34:15;6.53;;;3.58;;
4808;SDS011;2418;49.930;8.606;2023-04-12T03:36:41;8.60;;;3.70;;
4808;SDS011;2418;49.930;8.606;2023-04-12T03:39:07;6.47;;;3.47;;
4808;SDS011;2418;49.930;8.606;2023-04-12T03:41:33;3.60;;;3.30;;
4808;SDS011;2418;49.930;8.606;2023-04-12T03:43:59;7.00;;;3.60;;
4808;SDS011;2418;49.930;8.606;2023-04-12T03:46:25;6.97;;;3.88;;
4808;SDS011;2418;49.930;8.606;2023-04-12T03:48:51;10.35;;;3.95;;
4808;SDS011;2418;49.930;8.606;2023-04-12T03:51:17;4.50;;;4.10;;
4808;SDS011;2418;49.930;8.606;2023-04-12T03:53:46;8.40;;;4.38;;
4808;SDS011;2418;49.930;8.606;2023-04-12T03:56:12;13.32;;;4.40;;
4808;SDS011;2418;49.930;8.606;2023-04-12T03:58:38;8.15;;;4.85;;
4808;SDS011;2418;49.930;8.606;2023-04-12T04:01:04;12.73;;;4.87;;
4808;SDS011;2418;49.930;8.606;2023-04-12T04:03:31;6.65;;;4.47;;
4808;SDS011;2418;49.930;8.606;2023-04-12T04:05:58;7.70;;;4.83;;
4808;SDS011;2418;49.930;8.606;2023-04-12T04:08:24;9.85;;;4.60;;
4808;SDS011;2418;49.930;8.606;2023-04-12T04:10:50;3.63;;;3.28;;
4808;SDS011;2418;49.930;8.606;2023-04-12T04:13:16;7.07;;;3.53;;
4808;SDS011;2418;49.930;8.606;2023-04-12T04:15:42;5.03;;;3.55;;
4808;SDS011;2418;49.930;8.606;2023-04-12T04:18:08;7.50;;;3.70;;
4808;SDS011;2418;49.930;8.606;2023-04-12T04:20:34;11.18;;;4.40;;
4808;SDS011;2418;49.930;8.606;2023-04-12T04:23:00;12.70;;;3.40;;
4808;SDS011;2418;49.930;8.606;2023-04-12T04:25:26;6.95;;;3.30;;
4808;SDS011;2418;49.930;8.606;2023-04-12T04:27:54;5.30;;;3.30;;
4808;SDS011;2418;49.930;8.606;2023-04-12T04:30:20;6.80;;;3.67;;
4808;SDS011;2418;49.930;8.606;2023-04-12T04:32:47;5.65;;;3.20;;
4808;SDS011;2418;49.930;8.606;2023-04-12T04:35:13;9.45;;;3.20;;
4808;SDS011;2418;49.930;8.606;2023-04-12T04:37:40;5.03;;;3.00;;
4808;SDS011;2418;49.930;8.606;2023-04-12T04:40:07;4.60;;;2.73;;
4808;SDS011;2418;49.930;8.606;2023-04-12T04:42:35;3.38;;;2.60;;
4808;SDS011;2418;49.930;8.606;2023-04-12T04:45:02;5.50;;;3.83;;
4808;SDS011;2418;49.930;8.606;2023-04-12T04:47:36;3.00;;;2.53;;
4808;SDS011;2418;49.930;8.606;2023-04-12T04:50:02;9.00;;;3.20;;
4808;SDS011;2418;49.930;8.606;2023-04-12T04:52:28;3.80;;;2.70;;
4808;SDS011;2418;49.930;8.606;2023-04-12T04:54:54;5.70;;;2.30;;
4808;SDS011;2418;49.930;8.606;2023-04-12T04:57:21;6.28;;;2.90;;
4808;SDS011;2418;49.930;8.606;2023-04-12T04:59:47;8.87;;;3.03;;
4808;SDS011;2418;49.930;8.606;2023-04-12T05:02:13;5.78;;;3.08;;
4808;SDS011;2418;49.930;8.606;2023-04-12T05:04:40;7.35;;;3.08;;
4808;SDS011;2418;49.930;8.606;2023-04-12T05:07:06;4.30;;;2.80;;
4808;SDS011;2418;49.930;8.606;2023-04-12T05:09:32;7.10;;;2.70;;
4808;SDS011;2418;49.930;8.606;2023-04-12T05:11:58;4.00;;;2.70;;
4808;SDS011;2418;49.930;8.606;2023-04-12T05:14:24;9.45;;;2.47;;
4808;SDS011;2418;49.930;8.606;2023-04-12T05:16:50;9.48;;;2.90;;
4808;SDS011;2418;49.930;8.606;2023-04-12T05:19:16;8.70;;;3.08;;
4808;SDS011;2418;49.930;8.606;2023-04-12T05:21:41;10.13;;;3.35;;
4808;SDS011;2418;49.930;8.606;2023-04-12T05:24:08;7.70;;;3.30;;
4808;SDS011;2418;49.930;8.606;2023-04-12T05:26:35;8.43;;;3.35;;
4808;SDS011;2418;49.930;8.606;2023-04-12T05:29:01;10.80;;;4.00;;
4808;SDS011;2418;49.930;8.606;2023-04-12T05:31:27;6.30;;;3.88;;
4808;SDS011;2418;49.930;8.606;2023-04-12T05:33:53;9.93;;;3.40;;
4808;SDS011;2418;49.930;8.606;2023-04-12T05:36:19;7.45;;;2.83;;
4808;SDS011;2418;49.930;8.606;2023-04-12T05:38:45;3.30;;;2.50;;
4808;SDS011;2418;49.930;8.606;2023-04-12T05:41:11;4.35;;;2.42;;
4808;SDS011;2418;49.930;8.606;2023-04-12T05:43:37;4.57;;;2.10;;
4808;SDS011;2418;49.930;8.606;2023-04-12T05:46:04;6.78;;;2.40;;
4808;SDS011;2418;49.930;8.606;2023-04-12T05:48:33;2.97;;;2.40;;
4808;SDS011;2418;49.930;8.606;2023-04-12T05:51:00;3.00;;;2.40;;
4808;SDS011;2418;49.930;8.606;2023-04-12T05:53:27;10.60;;;2.88;;
4808;SDS011;2418;49.930;8.606;2023-04-12T05:55:53;6.00;;;3.10;;
4808;SDS011;2418;49.930;8.606;2023-04-12T05:58:19;7.80;;;3.05;;
4808;SDS011;2418;49.930;8.606;2023-04-12T06:00:45;3.75;;;2.70;;
4808;SDS011;2418;49.930;8.606;2023-04-12T06:03:13;3.80;;;2.95;;
4808;SDS011;2418;49.930;8.606;2023-04-12T06:05:39;3.72;;;2.45;;
4808;SDS011;2418;49.930;8.606;2023-04-12T06:08:05;2.40;;;2.20;;
4808;SDS011;2418;49.930;8.606;2023-04-12T06:10:32;2.70;;;2.60;;
4808;SDS011;2418;49.930;8.606;2023-04-12T06:12:58;6.07;;;2.63;;
4808;SDS011;2418;49.930;8.606;2023-04-12T06:15:24;4.10;;;2.67;;
4808;SDS011;2418;49.930;8.606;2023-04-12T06:17:51;4.82;;;2.35;;
4808;SDS011;2418;49.930;8.606;2023-04-12T06:20:17;4.05;;;2.38;;
4808;SDS011;2418;49.930;8.606;2023-04-12T06:22:44;4.72;;;2.63;;
4808;SDS011;2418;49.930;8.606;2023-04-12T06:25:10;4.28;;;2.58;;
4808;SDS011;2418;49.930;8.606;2023-04-12T06:27:36;3.42;;;2.80;;
4808;SDS011;2418;49.930;8.606;2023-04-12T06:30:02;6.10;;;2.80;;
4808;SDS011;2418;49.930;8.606;2023-04-12T06:32:28;8.27;;;2.70;;
4808;SDS011;2418;49.930;8.606;2023-04-12T06:34:55;3.70;;;2.60;;
4808;SDS011;2418;49.930;8.606;2023-04-12T06:37:20;5.65;;;3.30;;
4808;SDS011;2418;49.930;8.606;2023-04-12T06:39:48;4.50;;;3.10;;
4808;SDS011;2418;49.930;8.606;2023-04-12T06:42:14;3.72;;;2.60;;
4808;SDS011;2418;49.930;8.606;2023-04-12T06:44:40;7.38;;;2.15;;
4808;SDS011;2418;49.930;8.606;2023-04-12T06:47:06;5.82;;;2.60;;
4808;SDS011;2418;49.930;8.606;2023-04-12T06:49:33;3.37;;;2.30;;
4808;SDS011;2418;49.930;8.606;2023-04-12T06:52:01;5.18;;;2.00;;
4808;SDS011;2418;49.930;8.606;2023-04-12T06:54:26;2.25;;;2.00;;
4808;SDS011;2418;49.930;8.606;2023-04-12T06:56:53;5.53;;;1.90;;
4808;SDS011;2418;49.930;8.606;2023-04-12T06:59:19;9.30;;;2.10;;
4808;SDS011;2418;49.930;8.606;2023-04-12T07:01:45;7.32;;;2.30;;
4808;SDS011;2418;49.930;8.606;2023-04-12T07:04:11;3.10;;;2.60;;
4808;SDS011;2418;49.930;8.606;2023-04-12T07:06:37;9.70;;;1.60;;
4808;SDS011;2418;49.930;8.606;2023-04-12T07:09:03;1.90;;;1.80;;
4808;SDS011;2418;49.930;8.606;2023-04-12T07:11:29;4.53;;;2.00;;
4808;SDS011;2418;49.930;8.606;2023-04-12T07:13:55;2.60;;;1.80;;
4808;SDS011;2418;49.930;8.606;2023-04-12T07:16:23;2.92;;;1.60;;
4808;SDS011;2418;49.930;8.606;2023-04-12T07:18:49;2.23;;;1.90;;
4808;SDS011;2418;49.930;8.606;2023-04-12T07:21:15;2.42;;;1.90;;
4808;SDS011;2418;49.930;8.606;2023-04-12T07:23:42;3.95;;;1.70;;
4808;SDS011;2418;49.930;8.606;2023-04-12T07:26:08;1.90;;;1.70;;
4808;SDS011;2418;49.930;8.606;2023-04-12T07:28:34;2.13;;;1.90;;
4808;SDS011;2418;49.930;8.606;2023-04-12T07:31:05;3.80;;;1.90;;
4808;SDS011;2418;49.930;8.606;2023-04-12T07:33:31;1.60;;;1.50;;
4808;SDS011;2418;49.930;8.606;2023-04-12T07:35:58;4.93;;;2.03;;
4808;SDS011;2418;49.930;8.606;2023-04-12T07:38:24;3.90;;;2.40;;
4808;SDS011;2418;49.930;8.606;2023-04-12T07:40:53;3.80;;;1.55;;
4808;SDS011;2418;49.930;8.606;2023-04-12T07:43:19;3.10;;;2.25;;
4808;SDS011;2418;49.930;8.606;2023-04-12T07:45:45;2.00;;;1.70;;
4808;SDS011;2418;49.930;8.606;2023-04-12T07:48:11;2.45;;;2.25;;
4808;SDS011;2418;49.930;8.606;2023-04-12T07:50:37;5.00;;;2.00;;
4808;SDS011;2418;49.930;8.606;2023-04-12T07:53:16;5.95;;;1.88;;
4808;SDS011;2418;49.930;8.606;2023-04-12T07:55:43;3.20;;;1.90;;
4808;SDS011;2418;49.930;8.606;2023-04-12T07:58:09;4.10;;;2.00;;
4808;SDS011;2418;49.930;8.606;2023-04-12T08:00:35;5.38;;;2.20;;
4808;SDS011;2418;49.930;8.606;2023-04-12T08:03:03;1.80;;;1.70;;
4808;SDS011;2418;49.930;8.606;2023-04-12T08:05:29;3.10;;;2.08;;
4808;SDS011;2418;49.930;8.606;2023-04-12T08:07:55;2.00;;;1.90;;
4808;SDS011;2418;49.930;8.606;2023-04-12T08:10:21;4.60;;;1.90;;
4808;SDS011;2418;49.930;8.606;2023-04-12T08:12:47;1.75;;;1.65;;
4808;SDS011;2418;49.930;8.606;2023-04-12T08:15:13;7.07;;;2.00;;
4808;SDS011;2418;49.930;8.606;2023-04-12T08:17:39;2.28;;;2.17;;
4808;SDS011;2418;49.930;8.606;2023-04-12T08:20:07;4.00;;;1.98;;
4808;SDS011;2418;49.930;8.606;2023-04-12T08:22:34;3.60;;;2.30;;
4808;SDS011;2418;49.930;8.606;2023-04-12T08:25:00;2.40;;;2.20;;
4808;SDS011;2418;49.930;8.606;2023-04-12T08:27:28;3.50;;;1.80;;
4808;SDS011;2418;49.930;8.606;2023-04-12T08:29:54;3.97;;;1.80;;
4808;SDS011;2418;49.930;8.606;2023-04-12T08:32:20;3.10;;;1.90;;
4808;SDS011;2418;49.930;8.606;2023-04-12T08:34:47;2.35;;;1.90;;
4808;SDS011;2418;49.930;8.606;2023-04-12T08:37:12;3.27;;;2.23;;
4808;SDS011;2418;49.930;8.606;2023-04-12T08:39:38;2.90;;;2.10;;
4808;SDS011;2418;49.930;8.606;2023-04-12T08:42:04;2.90;;;2.08;;
4808;SDS011;2418;49.930;8.606;2023-04-12T08:44:35;3.30;;;2.10;;
4808;SDS011;2418;49.930;8.606;2023-04-12T08:47:02;2.23;;;2.13;;
4808;SDS011;2418;49.930;8.606;2023-04-12T08:49:29;2.00;;;1.90;;
4808;SDS011;2418;49.930;8.606;2023-04-12T08:51:57;3.88;;;2.05;;
4808;SDS011;2418;49.930;8.606;2023-04-12T08:54:24;4.85;;;2.20;;
4808;SDS011;2418;49.930;8.606;2023-04-12T08:56:53;5.70;;;2.30;;
4808;SDS011;2418;49.930;8.606;2023-04-12T08:59:21;2.58;;;1.67;;
4808;SDS011;2418;49.930;8.606;2023-04-12T09:01:48;3.83;;;1.70;;
4808;SDS011;2418;49.930;8.606;2023-04-12T09:04:14;4.28;;;2.40;;
4808;SDS011;2418;49.930;8.606;2023-04-12T09:06:40;3.45;;;2.15;;
4808;SDS011;2418;49.930;8.606;2023-04-12T09:09:08;4.78;;;2.03;;
4808;SDS011;2418;49.930;8.606;2023-04-12T09:11:34;2.33;;;2.10;;
4808;SDS011;2418;49.930;8.606;2023-04-12T09:14:02;2.10;;;2.00;;
4808;SDS011;2418;49.930;8.606;2023-04-12T09:16:34;9.05;;;2.20;;
4808;SDS011;2418;49.930;8.606;2023-04-12T09:19:01;2.60;;;1.90;;
4808;SDS011;2418;49.930;8.606;2023-04-12T09:21:28;2.60;;;2.20;;
4808;SDS011;2418;49.930;8.606;2023-04-12T09:24:04;5.20;;;3.00;;
4808;SDS011;2418;49.930;8.606;2023-04-12T09:26:33;3.65;;;2.20;;
4808;SDS011;2418;49.930;8.606;2023-04-12T09:28:59;4.97;;;2.60;;
4808;SDS011;2418;49.930;8.606;2023-04-12T09:31:27;3.17;;;2.53;;
4808;SDS011;2418;49.930;8.606;2023-04-12T09:33:53;4.10;;;3.10;;
4808;SDS011;2418;49.930;8.606;2023-04-12T09:36:25;3.40;;;2.95;;
4808;SDS011;2418;49.930;8.606;2023-04-12T09:39:01;3.30;;;2.70;;
4808;SDS011;2418;49.930;8.606;2023-04-12T09:41:29;3.92;;;2.70;;
4808;SDS011;2418;49.930;8.606;2023-04-12T09:43:59;3.00;;;2.78;;
4808;SDS011;2418;49.930;8.606;2023-04-12T09:46:25;6.43;;;2.80;;
4808;SDS011;2418;49.930;8.606;2023-04-12T09:48:53;6.60;;;3.40;;
4808;SDS011;2418;49.930;8.606;2023-04-12T09:51:22;4.30;;;2.80;;
4808;SDS011;2418;49.930;8.606;2023-04-12T09:53:57;7.35;;;4.00;;
4808;SDS011;2418;49.930;8.606;2023-04-12T09:56:25;5.65;;;3.83;;
4808;SDS011;2418;49.930;8.606;2023-04-12T09:58:52;7.72;;;7.03;;
4808;SDS011;2418;49.930;8.606;2023-04-12T10:01:20;45.90;;;31.50;;
4808;SDS011;2418;49.930;8.606;2023-04-12T10:03:47;25.88;;;21.63;;
4808;SDS011;2418;49.930;8.606;2023-04-12T10:06:13;28.05;;;21.50;;
4808;SDS011;2418;49.930;8.606;2023-04-12T10:08:43;22.15;;;17.92;;
4808;SDS011;2418;49.930;8.606;2023-04-12T10:11:11;14.70;;;13.48;;
4808;SDS011;2418;49.930;8.606;2023-04-12T10:13:37;5.43;;;4.50;;
4808;SDS011;2418;49.930;8.606;2023-04-12T10:16:04;3.60;;;3.40;;
4808;SDS011;2418;49.930;8.606;2023-04-12T10:18:30;3.70;;;3.40;;
4808;SDS011;2418;49.930;8.606;2023-04-12T10:21:01;6.90;;;3.92;;
4808;SDS011;2418;49.930;8.606;2023-04-12T10:23:28;7.60;;;3.80;;
4808;SDS011;2418;49.930;8.606;2023-04-12T10:25:56;3.70;;;3.40;;
4808;SDS011;2418;49.930;8.606;2023-04-12T10:28:22;4.30;;;4.00;;
4808;SDS011;2418;49.930;8.606;2023-04-12T10:30:48;4.18;;;3.60;;
4808;SDS011;2418;49.930;8.606;2023-04-12T10:33:17;5.20;;;3.40;;
4808;SDS011;2418;49.930;8.606;2023-04-12T10:35:53;5.72;;;4.20;;
4808;SDS011;2418;49.930;8.606;2023-04-12T10:38:20;3.50;;;3.30;;
4808;SDS011;2418;49.930;8.606;2023-04-12T10:43:34;3.77;;;3.40;;
4808;SDS011;2418;49.930;8.606;2023-04-12T10:46:01;3.88;;;3.58;;
4808;SDS011;2418;49.930;8.606;2023-04-12T10:53:51;5.03;;;3.72;;
4808;SDS011;2418;49.930;8.606;2023-04-12T10:58:59;5.30;;;4.80;;
4808;SDS011;2418;49.930;8.606;2023-04-12T11:01:25;4.10;;;3.70;;
4808;SDS011;2418;49.930;8.606;2023-04-12T11:04:04;8.57;;;5.72;;
4808;SDS011;2418;49.930;8.606;2023-04-12T11:09:23;3.65;;;3.25;;
4808;SDS011;2418;49.930;8.606;2023-04-12T11:11:54;4.40;;;4.00;;
4808;SDS011;2418;49.930;8.606;2023-04-12T11:14:28;4.10;;;3.70;;
4808;SDS011;2418;49.930;8.606;2023-04-12T11:19:34;6.65;;;3.83;;
4808;SDS011;2418;49.930;8.606;2023-04-12T11:22:07;4.00;;;3.60;;
4808;SDS011;2418;49.930;8.606;2023-04-12T11:24:36;3.90;;;3.50;;
4808;SDS011;2418;49.930;8.606;2023-04-12T11:27:03;6.57;;;3.30;;
4808;SDS011;2418;49.930;8.606;2023-04-12T11:29:29;3.70;;;3.40;;
4808;SDS011;2418;49.930;8.606;2023-04-12T11:31:56;3.28;;;2.97;;
4808;SDS011;2418;49.930;8.606;2023-04-12T11:34:23;3.50;;;3.30;;
4808;SDS011;2418;49.930;8.606;2023-04-12T11:36:52;3.97;;;3.53;;
4808;SDS011;2418;49.930;8.606;2023-04-12T11:39:19;4.60;;;3.60;;
4808;SDS011;2418;49.930;8.606;2023-04-12T11:41:46;3.33;;;3.03;;
4808;SDS011;2418;49.930;8.606;2023-04-12T11:44:12;4.18;;;3.50;;
4808;SDS011;2418;49.930;8.606;2023-04-12T11:46:42;6.43;;;3.70;;
4808;SDS011;2418;49.930;8.606;2023-04-12T11:49:08;3.42;;;3.22;;
4808;SDS011;2418;49.930;8.606;2023-04-12T11:51:34;3.87;;;3.57;;
4808;SDS011;2418;49.930;8.606;2023-04-12T11:54:00;3.88;;;3.30;;
4808;SDS011;2418;49.930;8.606;2023-04-12T11:56:27;5.82;;;3.58;;
4808;SDS011;2418;49.930;8.606;2023-04-12T11:58:53;4.07;;;3.20;;
4808;SDS011;2418;49.930;8.606;2023-04-12T12:01:19;4.10;;;3.20;;
4808;SDS011;2418;49.930;8.606;2023-04-12T12:03:46;4.90;;;3.70;;
4808;SDS011;2418;49.930;8.606;2023-04-12T12:06:13;3.17;;;2.97;;
4808;SDS011;2418;49.930;8.606;2023-04-12T12:08:39;2.80;;;2.70;;
4808;SDS011;2418;49.930;8.606;2023-04-12T12:11:06;5.57;;;3.35;;
4808;SDS011;2418;49.930;8.606;2023-04-12T12:13:45;4.50;;;3.03;;
4808;SDS011;2418;49.930;8.606;2023-04-12T12:16:12;3.10;;;2.80;;
4808;SDS011;2418;49.930;8.606;2023-04-12T12:18:47;3.60;;;2.90;;
4808;SDS011;2418;49.930;8.606;2023-04-12T12:21:13;6.80;;;3.58;;
4808;SDS011;2418;49.930;8.606;2023-04-12T12:23:43;5.35;;;3.10;;
4808;SDS011;2418;49.930;8.606;2023-04-12T12:26:17;8.02;;;3.55;;
4808;SDS011;2418;49.930;8.606;2023-04-12T12:28:43;3.40;;;2.65;;
4808;SDS011;2418;49.930;8.606;2023-04-12T12:31:13;2.67;;;2.50;;
4808;SDS011;2418;49.930;8.606;2023-04-12T12:33:43;4.13;;;2.33;;
4808;SDS011;2418;49.930;8.606;2023-04-12T12:36:10;2.90;;;2.70;;
4808;SDS011;2418;49.930;8.606;2023-04-12T12:38:38;2.90;;;2.60;;
4808;SDS011;2418;49.930;8.606;2023-04-12T12:41:23;3.50;;;3.20;;
4808;SDS011;2418;49.930;8.606;2023-04-12T12:43:51;4.05;;;2.75;;
4808;SDS011;2418;49.930;8.606;2023-04-12T12:46:18;3.50;;;2.80;;
4808;SDS011;2418;49.930;8.606;2023-04-12T12:48:46;3.03;;;2.83;;
4808;SDS011;2418;49.930;8.606;2023-04-12T12:51:13;3.05;;;2.83;;
4808;SDS011;2418;49.930;8.606;2023-04-12T12:53:42;3.50;;;3.30;;
4808;SDS011;2418;49.930;8.606;2023-04-12T12:56:08;3.47;;;3.38;;
4808;SDS011;2418;49.930;8.606;2023-04-12T12:58:35;3.70;;;3.40;;
4808;SDS011;2418;49.930;8.606;2023-04-12T13:01:01;4.00;;;3.40;;
4808;SDS011;2418;49.930;8.606;2023-04-12T13:03:28;4.30;;;3.90;;
4808;SDS011;2418;49.930;8.606;2023-04-12T13:05:55;4.70;;;3.45;;
4808;SDS011;2418;49.930;8.606;2023-04-12T13:08:22;4.72;;;3.28;;
4808;SDS011;2418;49.930;8.606;2023-04-12T13:10:48;4.10;;;3.80;;
4808;SDS011;2418;49.930;8.606;2023-04-12T13:13:14;3.80;;;3.60;;
4808;SDS011;2418;49.930;8.606;2023-04-12T13:15:41;4.47;;;3.90;;
4808;SDS011;2418;49.930;8.606;2023-04-12T13:18:07;4.30;;;4.10;;
4808;SDS011;2418;49.930;8.606;2023-04-12T13:20:36;6.90;;;4.50;;
4808;SDS011;2418;49.930;8.606;2023-04-12T13:23:02;4.43;;;4.22;;
4808;SDS011;2418;49.930;8.606;2023-04-12T13:25:28;4.93;;;4.40;;
4808;SDS011;2418;49.930;8.606;2023-04-12T13:27:54;7.10;;;4.20;;
4808;SDS011;2418;49.930;8.606;2023-04-12T13:30:20;6.20;;;5.17;;
4808;SDS011;2418;49.930;8.606;2023-04-12T13:32:46;5.15;;;4.03;;
4808;SDS011;2418;49.930;8.606;2023-04-12T13:35:12;6.15;;;3.75;;
4808;SDS011;2418;49.930;8.606;2023-04-12T13:37:39;6.03;;;4.30;;
4808;SDS011;2418;49.930;8.606;2023-04-12T13:40:06;4.40;;;4.00;;
4808;SDS011;2418;49.930;8.606;2023-04-12T13:42:32;4.47;;;4.07;;
4808;SDS011;2418;49.930;8.606;2023-04-12T13:45:01;7.57;;;3.03;;
4808;SDS011;2418;49.930;8.606;2023-04-12T13:47:28;4.50;;;3.20;;
4808;SDS011;2418;49.930;8.606;2023-04-12T13:49:55;5.10;;;2.80;;
4808;SDS011;2418;49.930;8.606;2023-04-12T13:52:22;3.83;;;3.53;;
4808;SDS011;2418;49.930;8.606;2023-04-12T13:54:48;4.72;;;3.33;;
4808;SDS011;2418;49.930;8.606;2023-04-12T13:57:15;4.40;;;2.60;;
4808;SDS011;2418;49.930;8.606;2023-04-12T13:59:44;3.10;;;2.90;;
4808;SDS011;2418;49.930;8.606;2023-04-12T14:02:10;3.35;;;2.20;;
4808;SDS011;2418;49.930;8.606;2023-04-12T14:04:47;3.60;;;2.00;;
4808;SDS011;2418;49.930;8.606;2023-04-12T14:07:14;4.30;;;2.90;;
4808;SDS011;2418;49.930;8.606;2023-04-12T14:09:40;3.83;;;3.60;;
4808;SDS011;2418;49.930;8.606;2023-04-12T14:12:05;3.30;;;3.10;;
4808;SDS011;2418;49.930;8.606;2023-04-12T14:14:31;4.00;;;3.77;;
4808;SDS011;2418;49.930;8.606;2023-04-12T14:17:01;3.17;;;2.97;;
4808;SDS011;2418;49.930;8.606;2023-04-12T14:19:27;3.20;;;3.00;;
4808;SDS011;2418;49.930;8.606;2023-04-12T14:21:54;3.58;;;2.83;;
4808;SDS011;2418;49.930;8.606;2023-04-12T14:24:20;3.85;;;3.40;;
4808;SDS011;2418;49.930;8.606;2023-04-12T14:26:46;4.07;;;3.65;;
4808;SDS011;2418;49.930;8.606;2023-04-12T14:29:14;3.00;;;2.80;;
4808;SDS011;2418;49.930;8.606;2023-04-12T14:31:41;2.60;;;2.40;;
4808;SDS011;2418;49.930;8.606;2023-04-12T14:34:07;3.40;;;2.50;;
4808;SDS011;2418;49.930;8.606;2023-04-12T14:36:34;3.55;;;3.35;;
4808;SDS011;2418;49.930;8.606;2023-04-12T14:39:00;2.50;;;2.40;;
4808;SDS011;2418;49.930;8.606;2023-04-12T14:41:29;2.27;;;1.93;;
4808;SDS011;2418;49.930;8.606;2023-04-12T14:44:00;2.10;;;2.00;;
4808;SDS011;2418;49.930;8.606;2023-04-12T14:46:27;2.00;;;1.67;;
4808;SDS011;2418;49.930;8.606;2023-04-12T14:48:54;2.20;;;1.70;;
4808;SDS011;2418;49.930;8.606;2023-04-12T14:51:20;1.05;;;1.05;;
4808;SDS011;2418;49.930;8.606;2023-04-12T14:53:46;1.33;;;1.23;;
4808;SDS011;2418;49.930;8.606;2023-04-12T14:56:19;1.20;;;1.20;;
4808;SDS011;2418;49.930;8.606;2023-04-12T14:58:45;1.17;;;1.17;;
4808;SDS011;2418;49.930;8.606;2023-04-12T15:01:12;1.60;;;1.60;;
4808;SDS011;2418;49.930;8.606;2023-04-12T15:03:38;4.20;;;3.80;;
4808;SDS011;2418;49.930;8.606;2023-04-12T15:06:06;2.72;;;2.53;;
4808;SDS011;2418;49.930;8.606;2023-04-12T15:08:32;1.40;;;1.30;;
4808;SDS011;2418;49.930;8.606;2023-04-12T15:11:05;1.90;;;1.50;;
4808;SDS011;2418;49.930;8.606;2023-04-12T15:13:33;1.00;;;0.90;;
4808;SDS011;2418;49.930;8.606;2023-04-12T15:16:00;2.50;;;2.10;;
4808;SDS011;2418;49.930;8.606;2023-04-12T15:18:30;2.70;;;1.60;;
4808;SDS011;2418;49.930;8.606;2023-04-12T15:20:56;0.90;;;0.90;;
4808;SDS011;2418;49.930;8.606;2023-04-12T15:23:24;1.10;;;0.90;;
4808;SDS011;2418;49.930;8.606;2023-04-12T15:25:57;0.88;;;0.88;;
4808;SDS011;2418;49.930;8.606;2023-04-12T15:28:27;1.25;;;0.82;;
4808;SDS011;2418;49.930;8.606;2023-04-12T15:30:53;0.73;;;0.73;;
4808;SDS011;2418;49.930;8.606;2023-04-12T15:33:20;0.70;;;0.70;;
4808;SDS011;2418;49.930;8.606;2023-04-12T15:35:47;1.70;;;0.80;;
4808;SDS011;2418;49.930;8.606;2023-04-12T15:38:13;0.73;;;0.73;;
4808;SDS011;2418;49.930;8.606;2023-04-12T15:40:43;1.73;;;0.90;;
4808;SDS011;2418;49.930;8.606;2023-04-12T15:43:09;0.80;;;0.80;;
4808;SDS011;2418;49.930;8.606;2023-04-12T15:45:38;3.17;;;2.88;;
4808;SDS011;2418;49.930;8.606;2023-04-12T15:48:06;0.80;;;0.80;;